Canouan Island, Canouan Airport (TVSC)

NameCanouan Airport
CityCanouan Island
CountrySaint Vincent and the Grenadines
ICAOTVSC
IATACIW
Altitude3 m
CoordinatesGoogle Map
Live Air TrafficLiveATC.net
METARTVSC 011900Z 07012KT 9999 SCT020TCU 29/20 Q1014
2019-02-01 19:00:00 Wind: East-Northeast (70°) 6.17 m/s - Visibility: > 10000 m - Temperature: 29 °C - Dew point: 20 °C - Humidity: 58.3% - Pressure: 1014 hPa

Sorry, no flights used the airport in this database.